Time;durP1;ratioP1;P1;durP2;ratioP2;P2;SDS_P1;SDS_P2;PMS_P1;PMS_P2;Temp;Humidity;BMP_temperature;BMP_pressure;BME280_temperature;BME280_humidity;BME280_pressure;Samples;Min_cycle;Max_cycle;Signal;HPM_P1;HPM_P2
2023/04/26 00:01:21;;;;;;;288.15;270.77;;;8.40;99.90;;;;;;5007626;28;20124;-88
2023/04/26 00:03:47;;;;;;;359.80;338.45;;;7.40;99.90;;;;;;4997653;28;20045;-89
2023/04/26 00:06:13;;;;;;;280.38;263.38;;;7.30;99.90;;;;;;4993376;28;20497;-88
2023/04/26 00:08:39;;;;;;;214.63;201.20;;;8.90;99.90;;;;;;5008947;28;20103;-88
2023/04/26 00:11:05;;;;;;;193.50;181.35;;;7.30;99.90;;;;;;5009036;28;20068;-89
2023/04/26 00:13:31;;;;;;;281.90;264.30;;;7.40;99.90;;;;;;4993067;28;20046;-88
2023/04/26 00:15:56;;;;;;;104.07;95.93;;;7.40;99.90;;;;;;4980818;28;20042;-88
2023/04/26 00:18:22;;;;;;;263.77;246.10;;;7.50;99.90;;;;;;4992549;28;20045;-88
2023/04/26 00:20:48;;;;;;;235.80;220.57;;;7.60;99.90;;;;;;4992833;28;20046;-88
2023/04/26 00:23:13;;;;;;;207.98;193.90;;;7.60;99.90;;;;;;5008682;28;20037;-88
2023/04/26 00:25:39;;;;;;;113.30;105.10;;;7.60;99.90;;;;;;4981203;28;20096;-88
2023/04/26 00:28:05;;;;;;;254.40;238.30;;;8.50;99.90;;;;;;5008767;28;20048;-88
2023/04/26 00:30:31;;;;;;;121.35;112.07;;;7.50;99.90;;;;;;5008599;28;20053;-89
2023/04/26 00:32:56;;;;;;;131.90;123.13;;;7.40;99.90;;;;;;4995952;28;20046;-88
2023/04/26 00:35:22;;;;;;;207.32;193.73;;;7.40;90.10;;;;;;4989955;28;20380;-88
2023/04/26 00:37:48;;;;;;;134.25;125.10;;;7.40;34.80;;;;;;4989383;28;20049;-88
2023/04/26 00:40:15;;;;;;;103.63;96.45;;;7.30;1.00;;;;;;4992715;28;20056;-88
2023/04/26 00:42:40;;;;;;;217.30;203.88;;;7.30;1.00;;;;;;4991896;28;20030;-88
2023/04/26 00:45:06;;;;;;;104.93;97.20;;;7.30;1.00;;;;;;4992959;28;20144;-88
2023/04/26 00:47:32;;;;;;;256.58;240.60;;;7.30;1.00;;;;;;4991113;28;20030;-88
2023/04/26 00:50:00;;;;;;;197.27;183.82;;;8.80;1.00;;;;;;4978181;28;20042;-88
2023/04/26 00:52:26;;;;;;;153.55;142.57;;;7.20;99.90;;;;;;4984990;28;20401;-88
2023/04/26 00:54:53;;;;;;;158.90;147.75;;;7.10;99.90;;;;;;4981902;28;20038;-88
2023/04/26 00:57:20;;;;;;;316.92;297.15;;;7.10;99.90;;;;;;5000453;28;20038;-88
2023/04/26 00:59:46;;;;;;;120.50;112.10;;;7.10;99.90;;;;;;5008642;28;20080;-88
2023/04/26 01:02:12;;;;;;;115.32;106.40;;;7.10;99.90;;;;;;4990352;28;20506;-88
2023/04/26 01:04:38;;;;;;;305.67;286.42;;;7.00;1.00;;;;;;5008626;28;20042;-88
2023/04/26 01:07:04;;;;;;;167.05;156.27;;;7.00;1.00;;;;;;4979404;28;20038;-88
2023/04/26 01:09:31;;;;;;;282.25;264.23;;;7.00;1.00;;;;;;4972813;28;20668;-88
2023/04/26 01:11:57;;;;;;;128.10;118.72;;;7.10;1.00;;;;;;4989121;28;20609;-89
2023/04/26 01:14:23;;;;;;;154.63;143.38;;;7.10;1.00;;;;;;4973041;28;20468;-88
2023/04/26 01:16:51;;;;;;;146.00;135.73;;;7.10;1.00;;;;;;4977132;28;20069;-88
2023/04/26 01:19:17;;;;;;;117.28;108.88;;;7.10;1.00;;;;;;4991964;28;20046;-88
2023/04/26 01:21:43;;;;;;;333.48;313.35;;;7.20;1.00;;;;;;4995527;28;20547;-89
2023/04/26 01:24:10;;;;;;;161.18;149.57;;;7.10;1.00;;;;;;5012832;28;20041;-88
2023/04/26 01:26:42;;;;;;;285.13;267.20;;;7.10;1.00;;;;;;4994930;28;20045;-88
2023/04/26 01:29:19;;;;;;;227.55;212.85;;;7.80;1.00;;;;;;4995988;28;20030;-88
2023/04/26 01:31:46;;;;;;;268.08;251.27;;;7.10;1.00;;;;;;5010343;28;20048;-88
2023/04/26 01:34:12;;;;;;;163.98;153.60;;;7.10;1.00;;;;;;4992821;28;20069;-88
2023/04/26 01:36:38;;;;;;;149.48;139.80;;;7.10;1.00;;;;;;4994735;28;20031;-88
2023/04/26 01:39:04;;;;;;;125.88;116.88;;;7.20;99.90;;;;;;5007817;28;20488;-88
2023/04/26 01:41:30;;;;;;;114.60;106.53;;;7.20;99.90;;;;;;4995518;28;20449;-89
2023/04/26 01:43:55;;;;;;;276.30;259.58;;;7.20;99.90;;;;;;5012034;28;20045;-89
2023/04/26 01:46:21;;;;;;;277.15;260.20;;;7.20;99.90;;;;;;5006969;28;20034;-89
2023/04/26 01:48:47;;;;;;;174.23;162.60;;;7.20;99.90;;;;;;4976273;28;20038;-89
2023/04/26 01:51:13;;;;;;;296.25;278.27;;;7.30;99.90;;;;;;4992304;28;20034;-88
2023/04/26 01:53:38;;;;;;;118.20;109.85;;;7.30;99.90;;;;;;4987850;28;20121;-88
2023/04/26 01:56:04;;;;;;;149.52;139.32;;;7.40;99.90;;;;;;5007077;28;20230;-88
2023/04/26 01:58:30;;;;;;;150.27;139.40;;;7.40;99.90;;;;;;4976027;28;20042;-88
2023/04/26 02:01:03;;;;;;;117.72;109.22;;;7.30;99.90;;;;;;4991667;28;20490;-88
2023/04/26 02:03:29;;;;;;;242.85;227.88;;;7.30;99.90;;;;;;4997263;28;20480;-88
2023/04/26 02:05:55;;;;;;;266.67;249.75;;;7.30;99.90;;;;;;4995533;28;20286;-88
2023/04/26 02:08:20;;;;;;;254.68;238.30;;;7.20;99.90;;;;;;4995758;28;20061;-88
2023/04/26 02:10:46;;;;;;;132.45;123.03;;;7.20;99.90;;;;;;4995561;28;20057;-88
2023/04/26 02:13:11;;;;;;;247.77;232.27;;;7.10;99.90;;;;;;5008241;28;20038;-88
2023/04/26 02:15:37;;;;;;;107.85;100.18;;;7.00;99.90;;;;;;5006893;28;20042;-88
2023/04/26 02:18:03;;;;;;;275.80;258.45;;;7.10;99.90;;;;;;4994794;28;20037;-89
2023/04/26 02:20:28;;;;;;;132.23;122.82;;;7.10;99.90;;;;;;5011631;28;20061;-88
2023/04/26 02:22:54;;;;;;;108.03;100.22;;;7.00;99.90;;;;;;5010444;28;20538;-88
2023/04/26 02:25:20;;;;;;;113.90;105.82;;;7.00;99.90;;;;;;4993697;28;20050;-88
2023/04/26 02:27:45;;;;;;;123.20;114.32;;;7.00;99.90;;;;;;4994510;28;20497;-88
2023/04/26 02:30:11;;;;;;;289.63;270.98;;;6.90;99.90;;;;;;4995196;28;20149;-88
2023/04/26 02:32:37;;;;;;;131.23;122.00;;;6.90;99.90;;;;;;5009608;28;20116;-89
2023/04/26 02:35:04;;;;;;;117.20;108.65;;;6.80;99.90;;;;;;5010575;28;20053;-88
2023/04/26 02:37:31;;;;;;;309.00;290.40;;;6.90;99.90;;;;;;4994715;28;20042;-88
2023/04/26 02:39:56;;;;;;;280.92;263.33;;;6.90;99.90;;;;;;4994560;28;20618;-88
2023/04/26 02:42:22;;;;;;;255.43;239.73;;;6.90;99.90;;;;;;5010607;28;20133;-88
2023/04/26 02:44:47;;;;;;;334.40;313.77;;;6.90;99.90;;;;;;4978905;28;20038;-88
2023/04/26 02:47:13;;;;;;;307.33;288.80;;;6.90;99.90;;;;;;4973720;28;20042;-88
2023/04/26 02:49:38;;;;;;;292.33;274.48;;;6.90;99.90;;;;;;4991494;28;20510;-89
2023/04/26 02:52:04;;;;;;;277.10;260.38;;;6.80;99.90;;;;;;4975044;28;20038;-89
2023/04/26 02:54:30;;;;;;;108.88;101.30;;;6.90;99.90;;;;;;5002114;28;20394;-89
2023/04/26 02:56:56;;;;;;;112.28;103.82;;;7.00;99.90;;;;;;4991129;28;20049;-88
2023/04/26 02:59:22;;;;;;;261.63;245.77;;;7.10;99.90;;;;;;4991112;28;20050;-88
2023/04/26 03:01:48;;;;;;;135.95;126.95;;;6.80;1.00;;;;;;4989580;28;20053;-88
2023/04/26 03:04:14;;;;;;;99.05;91.90;;;6.60;1.00;;;;;;4989352;28;20038;-88
2023/04/26 03:06:40;;;;;;;124.70;115.85;;;6.50;37.20;;;;;;5010706;28;20422;-88
2023/04/26 03:09:06;;;;;;;288.50;270.40;;;6.30;97.40;;;;;;5010942;28;20037;-88
2023/04/26 03:11:31;;;;;;;93.28;86.80;;;6.30;99.90;;;;;;4994311;28;20544;-89
2023/04/26 03:13:57;;;;;;;88.95;82.50;;;6.30;99.90;;;;;;5010599;28;20087;-89
2023/04/26 03:16:23;;;;;;;333.25;313.13;;;6.20;99.90;;;;;;5005695;28;20601;-88
2023/04/26 03:18:48;;;;;;;135.65;126.90;;;6.60;99.90;;;;;;5010438;28;20112;-88
2023/04/26 03:21:14;;;;;;;348.67;327.85;;;7.30;99.90;;;;;;4993772;28;20037;-89
2023/04/26 03:23:40;;;;;;;271.77;255.52;;;6.20;99.90;;;;;;4993906;28;20149;-89
2023/04/26 03:26:06;;;;;;;336.98;316.73;;;6.20;99.90;;;;;;4990150;28;20053;-88
2023/04/26 03:28:31;;;;;;;116.00;108.43;;;6.30;99.90;;;;;;4990548;28;20041;-88
2023/04/26 03:30:57;;;;;;;189.77;177.98;;;6.20;99.90;;;;;;4973604;28;20049;-88
2023/04/26 03:33:22;;;;;;;89.72;83.72;;;6.20;99.90;;;;;;4982907;28;20063;-89
2023/04/26 03:35:48;;;;;;;248.13;233.52;;;6.10;99.90;;;;;;5010356;28;20497;-88
2023/04/26 03:38:14;;;;;;;261.58;245.98;;;6.10;99.90;;;;;;4993769;28;20065;-89
2023/04/26 03:40:40;;;;;;;90.80;84.85;;;6.00;99.90;;;;;;5010427;28;20458;-89
2023/04/26 03:43:05;;;;;;;315.80;297.17;;;6.00;99.90;;;;;;5002759;28;20035;-89
2023/04/26 03:45:31;;;;;;;86.20;80.28;;;5.90;99.90;;;;;;4989940;28;20455;-88
2023/04/26 03:47:56;;;;;;;86.38;80.65;;;5.90;99.90;;;;;;4989710;28;20522;-89
2023/04/26 03:50:22;;;;;;;318.08;299.67;;;5.80;99.90;;;;;;4990479;28;20038;-89
2023/04/26 03:52:48;;;;;;;99.25;92.65;;;5.80;99.90;;;;;;4992588;28;20097;-89
2023/04/26 03:55:13;;;;;;;222.75;209.60;;;5.80;99.90;;;;;;4993349;28;20074;-89
2023/04/26 03:57:39;;;;;;;82.97;77.28;;;5.80;99.90;;;;;;4993255;28;20049;-89
2023/04/26 04:00:09;;;;;;;133.63;124.95;;;5.80;99.90;;;;;;4991796;28;20064;-88
2023/04/26 04:02:36;;;;;;;325.33;305.08;;;5.90;99.90;;;;;;4990477;28;20046;-89
2023/04/26 04:05:01;;;;;;;110.57;102.53;;;5.80;99.90;;;;;;4973348;28;20270;-89
2023/04/26 04:07:27;;;;;;;123.03;114.40;;;5.90;99.90;;;;;;4974070;28;20038;-89
2023/04/26 04:09:52;;;;;;;374.77;352.02;;;5.90;99.90;;;;;;4973747;28;20038;-89
2023/04/26 04:12:18;;;;;;;250.35;234.88;;;6.10;99.90;;;;;;4992059;28;20038;-89
2023/04/26 04:14:43;;;;;;;227.00;212.98;;;6.10;99.90;;;;;;5009134;28;20143;-88
2023/04/26 04:17:09;;;;;;;313.88;295.50;;;7.90;99.90;;;;;;5007901;28;20038;-89
2023/04/26 04:19:36;;;;;;;331.17;310.90;;;6.30;99.90;;;;;;5009395;28;20059;-88
2023/04/26 04:22:02;;;;;;;114.03;105.78;;;8.20;99.90;;;;;;4989896;28;20508;-89
2023/04/26 04:24:27;;;;;;;158.32;147.35;;;6.40;99.90;;;;;;4988572;28;20034;-89
2023/04/26 04:26:53;;;;;;;320.45;300.92;;;6.30;99.90;;;;;;4998105;28;20452;-89
2023/04/26 04:29:19;;;;;;;158.93;148.13;;;6.40;99.90;;;;;;5021190;28;20053;-89
2023/04/26 04:31:44;;;;;;;338.67;317.88;;;6.50;99.90;;;;;;5014469;28;20690;-89
2023/04/26 04:34:10;;;;;;;109.70;102.25;;;6.50;99.90;;;;;;5030016;28;20084;-88
2023/04/26 04:36:37;;;;;;;143.40;133.30;;;8.30;99.90;;;;;;4987439;28;20127;-89
2023/04/26 04:39:04;;;;;;;120.18;111.43;;;6.60;99.90;;;;;;4990106;28;20149;-89
2023/04/26 04:41:31;;;;;;;289.90;272.25;;;6.50;99.90;;;;;;4989076;28;20038;-88
2023/04/26 04:43:57;;;;;;;120.45;110.90;;;6.60;99.90;;;;;;4973742;28;20065;-89
2023/04/26 04:46:24;;;;;;;97.10;90.15;;;6.50;99.90;;;;;;4984687;28;20064;-89
2023/04/26 04:48:49;;;;;;;192.35;180.02;;;7.30;99.90;;;;;;4981804;28;20165;-89
2023/04/26 04:51:15;;;;;;;239.52;224.80;;;6.60;99.90;;;;;;5002398;28;20129;-89
2023/04/26 04:53:41;;;;;;;104.68;96.75;;;6.70;99.90;;;;;;4982029;28;20080;-89
2023/04/26 04:56:07;;;;;;;89.43;83.25;;;6.90;99.90;;;;;;5008514;28;20041;-89
2023/04/26 04:58:33;;;;;;;105.00;97.68;;;6.70;99.90;;;;;;4988730;28;20502;-89
2023/04/26 05:01:00;;;;;;;137.25;127.47;;;7.40;1.00;;;;;;4994212;28;20077;-90
2023/04/26 05:03:25;;;;;;;88.25;82.22;;;6.20;1.00;;;;;;4984096;28;20059;-89
2023/04/26 05:05:51;;;;;;;79.68;74.35;;;6.10;26.50;;;;;;5002239;28;20077;-89
2023/04/26 05:08:16;;;;;;;92.28;85.72;;;6.10;93.20;;;;;;5008648;28;20485;-89
2023/04/26 05:10:42;;;;;;;74.65;69.40;;;6.10;99.90;;;;;;5005169;28;20132;-90
2023/04/26 05:13:07;;;;;;;76.10;70.55;;;6.20;99.90;;;;;;5002494;28;20531;-89
2023/04/26 05:15:33;;;;;;;97.78;90.50;;;6.30;99.90;;;;;;5003604;28;20104;-89
2023/04/26 05:17:58;;;;;;;307.90;289.55;;;6.30;99.90;;;;;;5007852;28;20488;-88
2023/04/26 05:20:24;;;;;;;90.05;83.78;;;6.40;99.90;;;;;;4980340;28;20042;-88
2023/04/26 05:22:50;;;;;;;93.40;86.88;;;6.50;99.90;;;;;;5004709;28;20037;-88
2023/04/26 05:25:16;;;;;;;187.85;176.43;;;6.50;99.90;;;;;;5002284;28;20532;-89
2023/04/26 05:27:41;;;;;;;95.18;88.65;;;6.50;99.90;;;;;;4981915;28;20034;-88
2023/04/26 05:30:07;;;;;;;278.77;262.50;;;6.60;99.90;;;;;;4999763;28;20126;-88
2023/04/26 05:32:33;;;;;;;137.05;128.27;;;6.70;99.90;;;;;;4981442;28;20369;-89
2023/04/26 05:35:00;;;;;;;222.18;208.52;;;6.70;99.90;;;;;;4998756;28;20046;-89
2023/04/26 05:37:25;;;;;;;224.25;211.13;;;7.20;99.90;;;;;;4991253;28;20527;-89
2023/04/26 05:39:51;;;;;;;214.07;201.65;;;6.90;99.90;;;;;;4988311;28;20049;-89
2023/04/26 05:42:17;;;;;;;155.30;145.38;;;8.50;99.90;;;;;;4984736;28;20119;-89
2023/04/26 05:44:42;;;;;;;219.07;205.05;;;7.00;99.90;;;;;;4984172;28;20066;-89
2023/04/26 05:47:08;;;;;;;111.97;104.03;;;7.10;99.90;;;;;;4970380;28;20054;-88
2023/04/26 05:49:34;;;;;;;158.38;147.63;;;7.20;99.90;;;;;;4972889;28;20458;-89
2023/04/26 05:52:00;;;;;;;253.55;237.63;;;7.40;99.90;;;;;;4972245;28;20057;-89
2023/04/26 05:54:26;;;;;;;248.27;232.95;;;7.40;99.90;;;;;;4991881;28;20034;-89
2023/04/26 05:56:51;;;;;;;256.95;241.40;;;7.40;99.90;;;;;;5008207;28;20042;-88
2023/04/26 05:59:17;;;;;;;254.30;238.52;;;7.50;99.90;;;;;;5008793;28;20643;-89
2023/04/26 06:01:42;;;;;;;298.17;280.40;;;7.50;99.90;;;;;;4990569;28;20069;-88
2023/04/26 06:04:08;;;;;;;244.55;229.52;;;7.50;99.90;;;;;;5008075;28;20469;-89
2023/04/26 06:06:34;;;;;;;301.58;283.33;;;7.60;99.90;;;;;;4991599;28;20034;-88
2023/04/26 06:09:00;;;;;;;243.90;228.75;;;7.70;99.90;;;;;;4975912;28;20220;-88
2023/04/26 06:11:25;;;;;;;256.52;240.55;;;7.70;99.90;;;;;;4976723;28;20402;-89
2023/04/26 06:13:51;;;;;;;293.70;275.30;;;7.80;55.90;;;;;;4976169;28;20053;-89
2023/04/26 06:16:17;;;;;;;265.27;248.73;;;8.00;41.30;;;;;;5008491;28;20049;-90
2023/04/26 06:18:42;;;;;;;264.02;246.30;;;8.10;1.00;;;;;;4984989;28;20050;-89
2023/04/26 06:21:08;;;;;;;233.07;218.30;;;8.20;1.00;;;;;;4995055;28;20034;-89
2023/04/26 06:23:33;;;;;;;287.02;268.52;;;8.20;1.00;;;;;;4984794;28;20046;-89
2023/04/26 06:25:59;;;;;;;278.55;261.33;;;8.30;99.90;;;;;;4986292;28;20161;-88
2023/04/26 06:28:25;;;;;;;332.90;312.35;;;8.30;99.90;;;;;;5005849;28;20037;-87
2023/04/26 06:30:50;;;;;;;361.45;339.23;;;8.30;99.90;;;;;;5001984;28;20074;-90
2023/04/26 06:33:16;;;;;;;311.95;292.70;;;8.30;99.90;;;;;;4977133;28;20046;-88
2023/04/26 06:35:42;;;;;;;249.68;233.63;;;8.30;99.90;;;;;;5011203;28;20139;-88
2023/04/26 06:38:08;;;;;;;280.60;263.10;;;8.50;99.90;;;;;;4994441;28;20449;-88
2023/04/26 06:40:35;;;;;;;263.88;247.00;;;8.50;61.30;;;;;;4994227;28;20049;-88
2023/04/26 06:43:01;;;;;;;267.00;249.82;;;8.60;2.20;;;;;;5010304;28;20116;-89
2023/04/26 06:45:27;;;;;;;297.85;279.00;;;8.80;1.00;;;;;;5009715;28;20113;-89
2023/04/26 06:47:52;;;;;;;251.40;234.73;;;8.90;1.00;;;;;;4999217;28;20035;-88
2023/04/26 06:50:18;;;;;;;348.35;325.55;;;9.00;1.00;;;;;;5008809;28;20046;-89
2023/04/26 06:52:44;;;;;;;310.85;291.08;;;9.20;1.00;;;;;;5008429;28;20133;-89
2023/04/26 06:55:10;;;;;;;224.80;210.13;;;9.30;1.00;;;;;;4981640;28;20042;-89
2023/04/26 06:57:36;;;;;;;227.57;212.55;;;9.20;1.00;;;;;;4998606;28;20045;-89
2023/04/26 07:00:03;;;;;;;239.77;225.13;;;9.20;1.00;;;;;;4980871;28;20038;-89
2023/04/26 07:02:28;;;;;;;186.85;175.30;;;9.30;99.90;;;;;;4982642;28;20034;-89
2023/04/26 07:04:54;;;;;;;230.48;216.18;;;9.10;99.90;;;;;;4993965;28;20065;-93
2023/04/26 07:07:20;;;;;;;228.88;215.10;;;9.00;99.90;;;;;;5009762;28;20073;-89
2023/04/26 07:09:46;;;;;;;309.05;290.02;;;9.20;99.90;;;;;;4993923;28;20049;-88
2023/04/26 07:12:13;;;;;;;224.55;210.98;;;8.90;99.90;;;;;;4989510;28;20045;-87
2023/04/26 07:14:40;;;;;;;297.08;278.50;;;9.50;99.90;;;;;;5001905;28;20046;-88
2023/04/26 07:17:06;;;;;;;321.02;301.35;;;8.70;99.90;;;;;;4989392;28;20064;-88
2023/04/26 07:19:32;;;;;;;283.02;265.27;;;8.70;99.90;;;;;;4985911;28;20404;-88
2023/04/26 07:21:57;;;;;;;342.75;321.20;;;9.80;99.90;;;;;;5009012;28;20129;-88
2023/04/26 07:24:23;;;;;;;353.65;331.42;;;8.80;99.90;;;;;;4999669;28;20038;-89
2023/04/26 07:26:48;;;;;;;351.05;329.55;;;8.80;99.90;;;;;;5005854;28;20042;-87
2023/04/26 07:29:14;;;;;;;303.08;283.83;;;8.80;99.90;;;;;;5004460;28;20046;-87
2023/04/26 07:31:40;;;;;;;333.83;312.45;;;9.40;99.90;;;;;;4984790;28;20050;-87
2023/04/26 07:34:06;;;;;;;381.00;357.35;;;9.00;99.90;;;;;;4993785;28;20042;-88
2023/04/26 07:36:31;;;;;;;269.30;252.27;;;9.00;99.90;;;;;;4993135;28;20048;-89
2023/04/26 07:38:57;;;;;;;337.42;316.50;;;9.00;99.90;;;;;;5004751;28;20125;-87
2023/04/26 07:41:22;;;;;;;363.95;340.83;;;9.00;99.90;;;;;;4999801;28;20183;-88
2023/04/26 07:43:48;;;;;;;321.15;300.75;;;9.00;99.90;;;;;;5007922;28;20104;-88
2023/04/26 07:46:14;;;;;;;324.00;303.15;;;9.10;99.90;;;;;;5008609;28;20160;-88
2023/04/26 07:48:39;;;;;;;272.48;254.70;;;9.20;99.90;;;;;;5010672;28;20084;-85
2023/04/26 07:51:12;;;;;;;224.25;208.98;;;10.30;99.90;;;;;;4990089;28;20037;-84
2023/04/26 07:53:38;;;;;;;228.30;213.15;;;10.00;99.90;;;;;;5008325;28;20462;-86
2023/04/26 07:56:09;;;;;;;156.65;145.80;;;9.20;99.90;;;;;;4991304;28;20050;-86
2023/04/26 07:58:36;;;;;;;200.75;187.98;;;9.30;99.90;;;;;;4990300;28;20034;-85
2023/04/26 08:01:03;;;;;;;212.63;198.70;;;9.40;99.90;;;;;;4983129;28;20426;-86
2023/04/26 08:03:28;;;;;;;246.93;231.57;;;9.50;99.90;;;;;;5000643;28;20041;-86
2023/04/26 08:05:54;;;;;;;161.57;151.30;;;9.70;99.90;;;;;;4993142;28;20049;-86
2023/04/26 08:08:24;;;;;;;237.32;222.35;;;9.70;99.90;;;;;;4991010;28;20177;-86
2023/04/26 08:10:50;;;;;;;231.52;216.40;;;9.70;99.90;;;;;;5007665;28;20076;-87
2023/04/26 08:13:15;;;;;;;237.20;222.43;;;9.70;99.90;;;;;;4993164;28;20080;-88
2023/04/26 08:15:41;;;;;;;204.13;190.77;;;9.80;99.90;;;;;;4983964;28;20042;-87
2023/04/26 08:18:07;;;;;;;169.07;157.43;;;9.80;99.90;;;;;;4982050;28;20052;-87
2023/04/26 08:20:32;;;;;;;247.60;231.40;;;9.80;99.30;;;;;;4987324;28;20495;-87
2023/04/26 08:22:59;;;;;;;285.35;267.55;;;10.00;99.90;;;;;;4986999;28;20038;-87
2023/04/26 08:25:25;;;;;;;223.10;209.02;;;11.10;99.90;;;;;;4991801;28;20038;-87
2023/04/26 08:27:51;;;;;;;177.13;165.05;;;10.10;99.90;;;;;;5009018;28;20048;-87
2023/04/26 08:30:18;;;;;;;209.10;195.02;;;11.50;99.90;;;;;;4992444;28;20625;-87
2023/04/26 08:32:44;;;;;;;176.95;165.07;;;10.10;99.90;;;;;;5007807;28;20095;-87
2023/04/26 08:35:10;;;;;;;148.65;139.10;;;10.40;99.90;;;;;;5008752;28;20049;-86
2023/04/26 08:37:36;;;;;;;114.82;106.82;;;10.20;99.90;;;;;;5004078;28;20490;-86
2023/04/26 08:40:04;;;;;;;164.82;153.95;;;10.30;99.90;;;;;;5004807;28;20049;-86
2023/04/26 08:42:30;;;;;;;85.25;78.93;;;10.30;94.30;;;;;;4991840;28;20151;-87
2023/04/26 08:45:01;;;;;;;135.25;126.32;;;10.50;96.40;;;;;;5006416;28;20036;-85
2023/04/26 08:47:35;;;;;;;110.70;102.97;;;10.60;69.30;;;;;;4980330;28;20482;-88
2023/04/26 08:50:02;;;;;;;92.15;84.15;;;10.90;89.50;;;;;;4973406;28;20038;-86
2023/04/26 08:52:30;;;;;;;59.00;54.38;;;11.10;99.90;;;;;;4975353;28;20134;-86
2023/04/26 08:54:59;;;;;;;73.78;67.55;;;11.00;93.80;;;;;;4992675;28;20049;-86
2023/04/26 08:57:25;;;;;;;60.95;56.20;;;11.00;88.00;;;;;;5001963;28;20050;-87
2023/04/26 08:59:52;;;;;;;79.72;74.13;;;10.70;78.60;;;;;;5005949;28;20041;-87
2023/04/26 09:02:22;;;;;;;76.45;70.57;;;10.40;54.50;;;;;;4989581;28;20038;-86
2023/04/26 09:04:49;;;;;;;98.75;91.75;;;10.80;56.10;;;;;;4977582;28;20062;-86
2023/04/26 09:07:32;;;;;;;77.40;71.63;;;10.00;66.30;;;;;;4992046;28;20072;-87
2023/04/26 09:09:59;;;;;;;98.32;91.53;;;9.90;46.90;;;;;;5001281;28;20144;-88
2023/04/26 09:12:26;;;;;;;57.45;52.65;;;9.90;74.60;;;;;;4991833;28;20045;-86
2023/04/26 09:14:52;;;;;;;117.80;109.72;;;9.90;40.70;;;;;;5006293;28;20034;-86
2023/04/26 09:17:28;;;;;;;155.77;144.82;;;9.80;28.10;;;;;;4971870;28;20053;-86
2023/04/26 09:19:54;;;;;;;112.43;104.72;;;9.90;36.90;;;;;;4986998;28;20573;-86
2023/04/26 09:22:37;;;;;;;128.15;119.50;;;10.00;19.20;;;;;;4991014;28;20030;-87
2023/04/26 09:25:04;;;;;;;84.57;78.65;;;10.20;23.70;;;;;;5007468;28;20042;-88
2023/04/26 09:27:38;;;;;;;146.85;136.63;;;10.30;27.00;;;;;;4991976;28;20116;-86
2023/04/26 09:30:09;;;;;;;88.43;81.68;;;10.50;25.80;;;;;;5006923;28;20038;-85
2023/04/26 09:33:04;;;;;;;115.68;107.60;;;10.70;32.00;;;;;;5006382;28;20048;-86
2023/04/26 09:35:38;;;;;;;98.07;90.55;;;10.80;13.90;;;;;;5008403;28;20502;-87
2023/04/26 09:38:06;;;;;;;148.85;139.38;;;10.70;14.80;;;;;;5008265;28;20076;-88
2023/04/26 09:40:39;;;;;;;84.78;77.70;;;10.60;9.40;;;;;;5007173;28;20054;-87
2023/04/26 09:43:15;;;;;;;94.20;87.05;;;10.60;12.40;;;;;;5012234;28;20081;-86
2023/04/26 09:45:52;;;;;;;76.25;69.53;;;10.60;22.20;;;;;;5010891;28;20448;-86
2023/04/26 09:48:27;;;;;;;64.18;58.97;;;10.40;47.70;;;;;;5011026;28;20038;-86
2023/04/26 09:50:58;;;;;;;131.95;121.43;;;9.90;37.40;;;;;;5010941;28;20045;-86
2023/04/26 09:53:44;;;;;;;154.65;143.43;;;9.60;85.80;;;;;;4995511;28;20520;-86
2023/04/26 09:56:17;;;;;;;181.00;168.77;;;10.50;99.90;;;;;;4994916;28;20050;-85
2023/04/26 09:58:43;;;;;;;145.27;134.38;;;9.40;99.90;;;;;;4993435;28;20064;-86
2023/04/26 10:01:10;;;;;;;197.65;184.35;;;9.30;99.90;;;;;;4983312;28;20050;-86
2023/04/26 10:03:36;;;;;;;220.15;205.85;;;9.30;99.90;;;;;;5007323;28;20120;-86
2023/04/26 10:06:03;;;;;;;134.02;124.55;;;9.40;99.90;;;;;;4994662;28;20506;-86
2023/04/26 10:08:30;;;;;;;195.82;183.35;;;9.60;99.90;;;;;;5008408;28;20038;-86
2023/04/26 10:10:56;;;;;;;167.95;156.45;;;9.70;99.90;;;;;;4992901;28;20042;-87
2023/04/26 10:13:21;;;;;;;97.30;90.05;;;9.80;99.90;;;;;;5006804;28;20050;-87
2023/04/26 10:15:47;;;;;;;170.73;159.57;;;9.80;99.90;;;;;;4987968;28;20046;-89
2023/04/26 10:18:13;;;;;;;138.95;128.80;;;9.60;99.90;;;;;;5010838;28;20045;-87
2023/04/26 10:20:42;;;;;;;136.63;126.57;;;9.80;99.90;;;;;;4994267;28;20392;-86
2023/04/26 10:23:24;;;;;;;148.35;138.38;;;9.60;99.90;;;;;;5009875;28;20037;-86
2023/04/26 10:25:50;;;;;;;204.90;190.88;;;9.50;99.90;;;;;;5011348;28;20033;-87
2023/04/26 10:28:17;;;;;;;229.63;214.20;;;10.80;99.90;;;;;;4994335;28;20041;-86
2023/04/26 10:30:56;;;;;;;158.68;147.30;;;11.00;99.90;;;;;;4992878;28;20049;-86
2023/04/26 10:33:22;;;;;;;217.93;203.13;;;9.80;95.20;;;;;;4988374;28;20046;-87
2023/04/26 10:36:07;;;;;;;179.00;166.93;;;9.80;74.20;;;;;;4979109;28;20121;-87
2023/04/26 10:38:35;;;;;;;167.68;156.27;;;9.80;85.70;;;;;;5008368;28;20065;-86
2023/04/26 10:41:32;;;;;;;107.30;99.18;;;11.50;49.30;;;;;;4995144;28;20085;-86
2023/04/26 10:44:20;;;;;;;130.63;121.72;;;10.00;51.00;;;;;;4995858;28;20506;-87
2023/04/26 10:46:50;;;;;;;166.70;155.65;;;10.00;39.60;;;;;;4990099;28;20061;-87
2023/04/26 10:49:17;;;;;;;117.28;108.60;;;10.00;22.60;;;;;;4981259;28;20280;-87
2023/04/26 10:52:10;;;;;;;112.60;104.50;;;10.00;6.80;;;;;;5005180;28;20261;-87
2023/04/26 10:54:56;;;;;;;202.90;189.35;;;10.00;1.00;;;;;;4992357;28;20042;-86
2023/04/26 10:57:43;;;;;;;211.00;197.02;;;10.10;1.00;;;;;;5002545;28;20113;-86
2023/04/26 11:00:15;;;;;;;68.13;62.90;;;10.20;8.40;;;;;;4974563;28;20418;-86
2023/04/26 11:03:09;;;;;;;150.13;139.88;;;10.20;1.00;;;;;;5005081;28;20050;-86
2023/04/26 11:05:37;;;;;;;153.77;143.38;;;10.20;1.00;;;;;;4975304;28;20042;-86
2023/04/26 11:08:18;;;;;;;157.95;147.07;;;10.20;1.00;;;;;;5009884;28;20096;-87
2023/04/26 11:10:49;;;;;;;167.55;156.32;;;10.10;1.00;;;;;;5010660;28;20049;-85
2023/04/26 11:13:16;;;;;;;227.55;212.88;;;10.10;1.00;;;;;;4978560;28;20136;-87
2023/04/26 11:15:42;;;;;;;101.07;93.55;;;10.00;1.00;;;;;;4993513;28;20497;-86
2023/04/26 11:18:08;;;;;;;58.58;53.95;;;10.10;1.00;;;;;;5008880;28;20049;-86
2023/04/26 11:20:33;;;;;;;189.07;175.50;;;10.20;1.20;;;;;;5010347;28;20064;-87
2023/04/26 11:23:00;;;;;;;164.90;153.50;;;10.30;6.60;;;;;;4993844;28;20050;-87
2023/04/26 11:25:27;;;;;;;163.68;153.20;;;10.30;1.80;;;;;;4992975;28;20038;-87
2023/04/26 11:28:02;;;;;;;205.60;191.80;;;10.40;17.30;;;;;;4996981;28;20065;-87
2023/04/26 11:30:30;;;;;;;159.90;148.93;;;10.40;19.10;;;;;;4974038;28;20052;-87
2023/04/26 11:32:59;;;;;;;174.82;163.23;;;10.30;23.40;;;;;;4986131;28;20046;-85
2023/04/26 11:35:26;;;;;;;150.57;140.00;;;10.20;42.30;;;;;;4974535;28;20050;-86
2023/04/26 11:37:52;;;;;;;169.20;157.52;;;10.20;54.60;;;;;;4989751;28;20083;-87
2023/04/26 11:40:18;;;;;;;179.55;168.13;;;10.20;43.80;;;;;;5008014;28;20053;-87
2023/04/26 11:42:44;;;;;;;159.98;149.43;;;10.40;41.80;;;;;;4993638;28;20045;-86
2023/04/26 11:45:11;;;;;;;119.55;110.60;;;10.40;1.00;;;;;;5004787;28;20034;-87
2023/04/26 11:47:37;;;;;;;122.95;113.53;;;10.50;7.80;;;;;;4973469;28;20041;-88
2023/04/26 11:50:03;;;;;;;126.03;116.75;;;10.40;1.00;;;;;;4998455;28;20034;-87
2023/04/26 11:52:29;;;;;;;115.13;107.18;;;10.50;13.10;;;;;;5009848;28;20042;-89
2023/04/26 11:55:07;;;;;;;80.15;73.60;;;12.40;23.70;;;;;;4993275;28;20042;-89
2023/04/26 11:57:33;;;;;;;68.35;62.90;;;10.70;19.70;;;;;;5009790;28;20045;-89
2023/04/26 12:00:13;;;;;;;107.72;99.75;;;10.40;4.30;;;;;;5006542;28;20074;-87
2023/04/26 12:02:45;;;;;;;110.15;101.80;;;10.10;9.80;;;;;;4988855;28;20050;-89
2023/04/26 12:05:19;;;;;;;133.55;123.70;;;10.20;56.50;;;;;;5001464;28;20634;-88
2023/04/26 12:07:52;;;;;;;98.80;91.70;;;10.40;94.00;;;;;;4990223;28;20518;-87
2023/04/26 12:10:20;;;;;;;161.73;150.65;;;10.20;43.30;;;;;;5005349;28;20319;-88
2023/04/26 12:12:48;;;;;;;138.30;128.35;;;10.10;49.90;;;;;;5009270;28;20127;-88
2023/04/26 12:15:14;;;;;;;136.77;126.57;;;10.20;55.80;;;;;;4991268;28;20061;-89
2023/04/26 12:17:40;;;;;;;130.40;121.70;;;10.30;55.50;;;;;;4987069;28;20061;-89
2023/04/26 12:20:10;;;;;;;123.78;114.85;;;11.80;50.60;;;;;;5008008;28;20421;-87
2023/04/26 12:22:35;;;;;;;132.18;122.57;;;10.30;26.40;;;;;;5008640;28;20057;-88